»·PEaware :: WAT169 KLAS-KSNA

WAT169 :: KLAS-KSNA

FLIGHT INFORMATION

Flight Status: Arrived
Operator:
Walker Air Transport
More flights by this operator :: More flights under this callsign
Pilot: Marty P. (27464)
Aircraft: BOEING 737-800
(B738)
More flights by this aircraft type
Origin: KLAS McCarran Intl
United States
Destination: KSNA John Wayne-Orange Co
United States
More flights between these airports :: More routes between these airports
Route: BOACH8 WHIGG FEYLA DSNEE4
File this flight plan on PilotEdge
Remarks:
Altitude:
(Current/Filed)
28,000ft
Speed:
(Current/Filed)
480kts
Departed: 12-Jan-21 09:34 AM
Arrived: 12-Jan-21 10:12 AM
Distance/Time
Traveled:
197nm/0:38
Distance/Time
To Go:
Arrived

Flight Plot

Page will automatically refresh every two minutes.

Flight plan parsing failed; only flown route is shown


Map Options




Map Legend


Flown Route
Filed Route
Departure Airport
Arrival Airport
Navaid (VOR, NDB)
Fix

Horizontal Profiles

Position Reports

Time Latitude Longitude Heading Altitude Ground
Speed
12-Jan-21 09:02 36.081007 -115.147692 67 2099ft 0kts
12-Jan-21 09:03 36.081007 -115.147692 67 2099ft 0kts
12-Jan-21 09:04 36.081007 -115.147692 67 2099ft 0kts
12-Jan-21 09:05 36.081007 -115.147692 67 2099ft 0kts
12-Jan-21 09:06 36.081007 -115.147692 67 2099ft 0kts
12-Jan-21 09:07 36.081007 -115.147692 67 2099ft 0kts
12-Jan-21 09:08 36.081007 -115.147692 67 2099ft 0kts
12-Jan-21 09:09 36.081007 -115.147692 67 2099ft 0kts
12-Jan-21 09:10 36.081007 -115.147692 67 2099ft 0kts
12-Jan-21 09:11 36.081007 -115.147692 67 2099ft 0kts
12-Jan-21 09:12 36.081007 -115.147692 67 2099ft 0kts
12-Jan-21 09:13 36.081007 -115.147692 67 2099ft 0kts
12-Jan-21 09:14 36.081007 -115.147692 67 2099ft 0kts
12-Jan-21 09:15 36.081007 -115.147692 67 2099ft 0kts
12-Jan-21 09:16 36.081007 -115.147692 67 2099ft 0kts
12-Jan-21 09:17 36.081007 -115.147692 67 2099ft 0kts
12-Jan-21 09:18 36.081007 -115.147692 67 2099ft 0kts
12-Jan-21 09:19 36.081007 -115.147692 67 2099ft 0kts
12-Jan-21 09:20 36.081007 -115.147692 67 2099ft 0kts
12-Jan-21 09:21 36.081007 -115.147692 67 2099ft 0kts
12-Jan-21 09:22 36.081007 -115.147692 67 2099ft 0kts
12-Jan-21 09:23 36.081003 -115.147703 67 2099ft 1kts
12-Jan-21 09:24 36.080888 -115.148394 132 2102ft 2kts
12-Jan-21 09:25 36.081017 -115.148493 156 2102ft 0kts
12-Jan-21 09:26 36.080963 -115.148463 155 2102ft 3kts
12-Jan-21 09:27 36.079452 -115.147596 155 2102ft 11kts
12-Jan-21 09:28 36.078345 -115.144523 92 2095ft 12kts
12-Jan-21 09:29 36.078266 -115.138946 89 2077ft 19kts
12-Jan-21 09:30 36.078277 -115.131129 91 2055ft 25kts
12-Jan-21 09:31 36.078267 -115.122958 95 2039ft 13kts
12-Jan-21 09:32 36.077114 -115.121293 165 2039ft 10kts
12-Jan-21 09:33 36.076422 -115.151616 270 2392ft 186kts
12-Jan-21 09:34 36.075563 -115.220940 257 4983ft 242kts
12-Jan-21 09:35 36.027884 -115.275750 199 9244ft 259kts
12-Jan-21 09:36 35.956520 -115.303019 189 12808ft 286kts
12-Jan-21 09:37 35.863765 -115.313918 182 14380ft 374kts
12-Jan-21 09:38 35.756889 -115.303706 174 17418ft 395kts
12-Jan-21 09:39 35.652856 -115.338981 222 20076ft 407kts
12-Jan-21 09:40 35.571949 -115.439549 229 22484ft 420kts
12-Jan-21 09:41 35.491369 -115.546588 230 24587ft 435kts
12-Jan-21 09:42 35.408534 -115.657911 230 26381ft 450kts
12-Jan-21 09:43 35.323154 -115.772727 231 28362ft 455kts
12-Jan-21 09:44 35.233384 -115.893287 230 28430ft 501kts
12-Jan-21 09:45 35.136652 -116.015931 228 28425ft 502kts
12-Jan-21 09:46 35.039989 -116.137241 229 28415ft 500kts
12-Jan-21 09:47 34.945220 -116.256051 229 28417ft 469kts
12-Jan-21 09:48 34.852604 -116.372475 229 28288ft 494kts
12-Jan-21 09:49 34.759656 -116.490589 229 26689ft 460kts
12-Jan-21 09:50 34.671908 -116.594453 222 24977ft 427kts
12-Jan-21 09:51 34.581848 -116.683552 220 22531ft 417kts
12-Jan-21 09:52 34.493910 -116.771948 225 20022ft 405kts
12-Jan-21 09:53 34.415076 -116.863095 226 17496ft 370kts
12-Jan-21 09:54 34.342502 -116.947259 226 15595ft 355kts
12-Jan-21 09:55 34.272260 -117.027306 220 14045ft 340kts
12-Jan-21 09:56 34.191731 -117.087993 212 12858ft 336kts
12-Jan-21 09:57 34.108578 -117.136296 205 12037ft 334kts
12-Jan-21 09:58 34.023690 -117.181719 207 12017ft 333kts
12-Jan-21 09:59 33.954614 -117.254586 231 10382ft 322kts
12-Jan-21 10:00 33.902907 -117.327539 232 9441ft 265kts
12-Jan-21 10:01 33.857981 -117.391445 237 7994ft 244kts
12-Jan-21 10:02 33.851535 -117.469775 271 6497ft 236kts
12-Jan-21 10:03 33.852509 -117.547972 271 5006ft 231kts
12-Jan-21 10:04 33.857129 -117.625374 291 4832ft 230kts
12-Jan-21 10:05 33.883523 -117.695131 295 3022ft 220kts
12-Jan-21 10:06 33.862371 -117.756007 198 3000ft 217kts
12-Jan-21 10:07 33.812219 -117.782179 205 2978ft 190kts
12-Jan-21 10:08 33.766360 -117.811284 206 1960ft 176kts
12-Jan-21 10:09 33.727700 -117.835843 207 1111ft 153kts
12-Jan-21 10:10 33.690185 -117.859645 207 288ft 151kts
12-Jan-21 10:11 33.669719 -117.872115 159 66ft 15kts
12-Jan-21 10:12 33.669993 -117.870017 40 66ft 17kts
12-Jan-21 10:13 33.673619 -117.866779 28 66ft 14kts
12-Jan-21 10:15 33.675042 -117.865160 118 66ft 2kts
12-Jan-21 10:16 33.675014 -117.865097 118 66ft 0kts

Navigation Log

Ident Type
Flight plan parsing failed, navigation log unavailable